Latest Coastal Weather Observations for Neptune Island

IDS60701

Issued at 4:31 pm CDT Monday 6 December 2021 (issued every 10 minutes, with the page automatically refreshed every 10 minutes)

About coastal observations | Map of coastal stations | Coastal observations for SA | Marine services | Other Formats
Station Details ID: 018115 Name: NEPTUNE ISLAND Lat: -35.34 Lon: 136.12 Height: 32.0 m
Data from the previous 72 hours. | See also: Recent months at Neptune Island
Date/Time
CDT
Wind Sea
Height
m
Swell Vis
km
Cloud Weather Temp
°C
Press
MSL
hPa
Rain since
9am
mm
Dir  Spd
kts
Gust
kts
Height
m
Period
s
Dir
06/04:30pm SW 17 20 - - - - - - - 18.6 1013.0 0.0
06/04:00pm SW 16 20 - - - - - - - 18.3 1013.2 0.0
06/03:30pm SW 15 17 - - - - - - - 18.8 1013.3 0.0
06/03:00pm SW 16 19 - - - - - - - 19.3 1013.4 0.0
06/02:30pm SW 17 21 - - - - - - - 18.1 1013.4 0.0
06/02:00pm SW 16 19 - - - - - - - 18.7 1013.5 0.0
06/01:30pm SW 17 19 - - - - - - - 18.2 1013.4 0.0
06/01:00pm WSW 10 12 - - - - - - - 18.3 1013.7 0.0
06/12:30pm WSW 10 12 - - - - - - - 18.1 1013.8 0.0
06/12:00pm WSW 9 11 - - - - - - - 18.2 1013.9 0.0
06/11:30am WSW 7 9 - - - - - - - 17.8 1014.0 0.0
06/11:00am WSW 6 8 - - - - - - - 17.1 1014.1 0.0
06/10:30am SW 7 9 - - - - - - - 17.2 1014.3 0.0
06/10:00am SSE 5 7 - - - - - - - 17.0 1014.2 0.0
06/09:30am E 6 8 - - - - - - - 17.4 1013.7 0.0
06/09:00am S 6 7 - - - - - - - 16.8 1014.0 0.0
06/08:30am SSW 7 8 - - - - - - - 16.8 1014.1 0.0
06/08:00am E 8 9 - - - - - - - 16.2 1013.1 0.0
06/07:30am ESE 7 9 - - - - - - - 16.0 1012.9 0.0
06/07:00am ESE 9 11 - - - - - - - 15.1 1013.0 0.0
06/06:30am ESE 11 14 - - - - - - - 14.3 1012.7 0.0
06/06:00am ESE 12 15 - - - - - - - 13.9 1012.5 0.0
06/05:30am ESE 12 15 - - - - - - - 13.9 1012.3 0.0
06/05:00am SE 12 15 - - - - - - - 14.0 1012.6 0.0
06/04:30am SE 10 13 - - - - - - - 13.8 1012.8 0.0
06/04:00am SE 8 11 - - - - - - - 13.9 1013.1 0.0
06/03:30am SSE 8 10 - - - - - - - 14.1 1013.6 0.0
06/03:00am SSE 7 10 - - - - - - - 14.2 1013.9 0.0
06/02:30am SE 8 10 - - - - - - - 14.2 1014.0 0.0
06/02:00am SE 8 10 - - - - - - - 14.2 1014.2 0.0
06/01:30am SE 9 11 - - - - - - - 14.5 1014.5 0.0
06/01:00am SE 9 11 - - - - - - - 14.7 1014.8 0.0
06/12:30am ESE 10 12 - - - - - - - 14.5 1015.0 0.0
06/12:00am ESE 12 14 - - - - - - - 14.8 1015.3 0.0
 
Date/Time
CDT
Wind Sea
Height
m
Swell Vis
km
Cloud Weather Temp
°C
Press
MSL
hPa
Rain since
9am
mm
Dir  Spd
kts
Gust
kts
Height
m
Period
s
Dir
05/11:30pm SE 13 15 - - - - - - - 15.1 1015.4 0.0
05/11:00pm SE 14 16 - - - - - - - 15.3 1015.4 0.0
05/10:30pm SE 15 19 - - - - - - - 15.3 1015.3 0.0
05/10:00pm SE 17 21 - - - - - - - 15.6 1015.3 0.0
05/09:30pm SE 19 22 - - - - - - - 15.7 1015.1 0.0
05/09:00pm SSE 20 23 - - - - - - - 15.7 1015.1 0.0
05/08:30pm SSE 18 22 - - - - - - - 15.8 1015.4 0.0
05/08:00pm S 20 23 - - - - - - - 15.9 1015.5 0.0
05/07:30pm SSE 20 23 - - - - - - - 16.2 1015.3 0.0
05/07:00pm SSE 20 23 - - - - - - - 16.2 1015.4 0.0
05/06:30pm SSE 19 23 - - - - - - - 16.3 1015.4 0.0
05/06:00pm SSE 18 22 - - - - - - - 17.2 1015.7 0.0
05/05:30pm S 17 22 - - - - - - - 17.9 1016.3 0.0
05/05:00pm SSE 16 18 - - - - - - - 17.2 1016.3 0.0
05/04:30pm S 16 18 - - - - - - - 18.6 1016.6 0.0
05/04:00pm SSE 15 18 - - - - - - - 17.7 1016.9 0.0
05/03:30pm SSE 14 17 - - - - - - - 18.5 1017.1 0.0
05/03:00pm SSE 12 15 - - - - - - - 17.6 1017.4 0.0
05/02:30pm SSE 9 11 - - - - - - - 19.6 1017.9 0.0
05/02:00pm SSE 6 8 - - - - - - - 17.9 1018.5 0.0
05/01:30pm SSE 8 10 - - - - - - - 19.2 1019.0 0.0
05/01:00pm SE 9 11 - - - - - - - 18.2 1019.3 0.0
05/12:30pm SE 9 11 - - - - - - - 19.4 1019.5 0.0
05/12:00pm ESE 10 12 - - - - - - - 18.3 1019.5 0.0
05/11:30am ESE 9 12 - - - - - - - 17.6 1019.7 0.0
05/11:00am ESE 10 13 - - - - - - - 16.9 1020.0 0.0
05/10:30am E 11 14 - - - - - - - 17.7 1020.1 0.0
05/10:00am E 11 14 - - - - - - - 16.5 1020.3 0.0
05/09:30am E 11 13 - - - - - - - 17.0 1020.6 0.0
05/09:00am E 12 14 - - - - - - - 15.8 1020.9 0.0
05/08:30am E 12 16 - - - - - - - 15.7 1021.0 0.0
05/08:00am ESE 12 15 - - - - - - - 15.3 1020.9 0.0
05/07:30am ESE 12 16 - - - - - - - 15.3 1020.8 0.0
05/07:00am ESE 13 16 - - - - - - - 14.8 1020.6 0.0
05/06:30am ESE 14 17 - - - - - - - 14.6 1020.6 0.0
05/06:00am ESE 14 16 - - - - - - - 14.3 1020.3 0.0
05/05:30am ESE 14 16 - - - - - - - 14.0 1020.3 0.0
05/05:00am ESE 14 18 - - - - - - - 14.1 1020.2 0.0
05/04:30am ESE 16 19 - - - - - - - 14.1 1019.9 0.0
05/04:00am SE 15 19 - - - - - - - 14.2 1020.1 0.0
05/03:30am SE 15 18 - - - - - - - 14.3 1020.2 0.0
05/03:00am SE 15 19 - - - - - - - 14.5 1020.2 0.0
05/02:30am SE 13 16 - - - - - - - 14.4 1020.7 0.0
05/02:00am SE 17 20 - - - - - - - 14.4 1020.8 0.0
05/01:30am SE 17 20 - - - - - - - 14.5 1020.9 0.0
05/01:00am SE 17 20 - - - - - - - 14.6 1021.3 0.0
05/12:30am SE 15 19 - - - - - - - 14.7 1021.7 0.0
05/12:00am SE 16 20 - - - - - - - 14.8 1021.8 0.0
 
Date/Time
CDT
Wind Sea
Height
m
Swell Vis
km
Cloud Weather Temp
°C
Press
MSL
hPa
Rain since
9am
mm
Dir  Spd
kts
Gust
kts
Height
m
Period
s
Dir
04/11:30pm SSE 16 20 - - - - - - - 14.9 1022.1 0.0
04/11:00pm SSE 15 18 - - - - - - - 14.9 1022.3 0.0
04/10:30pm SSE 14 18 - - - - - - - 15.0 1022.3 0.0
04/10:00pm SSE 13 17 - - - - - - - 15.0 1022.5 0.0
04/09:30pm SSE 13 17 - - - - - - - 15.1 1022.4 0.0
04/09:00pm S 15 17 - - - - - - - 15.1 1022.0 0.0
04/08:30pm S 17 19 - - - - - - - 15.1 1021.8 0.0
04/08:00pm S 16 19 - - - - - - - 15.5 1021.9 0.0
04/07:30pm S 16 19 - - - - - - - 15.6 1022.1 0.0
04/07:00pm S 15 17 - - - - - - - 16.1 1022.0 0.0
04/06:30pm S 16 18 - - - - - - - 16.6 1021.9 0.0
04/06:00pm S 15 18 - - - - - - - 16.9 1022.0 0.0
04/05:30pm S 13 16 - - - - - - - 16.3 1022.1 0.0
04/05:00pm S 12 15 - - - - - - - 16.9 1022.1 0.0
04/04:30pm SSE 12 14 - - - - - - - 17.5 1022.5 0.0
04/04:00pm S 12 14 - - - - - - - 18.0 1022.6 0.0
04/03:30pm S 12 15 - - - - - - - 17.9 1023.1 0.0
04/03:00pm S 11 16 - - - - - - - 17.3 1023.1 0.0
04/02:30pm SSE 10 13 - - - - - - - 17.1 1023.8 0.0
04/02:00pm S 10 11 - - - - - - - 18.0 1024.0 0.0
04/01:30pm S 9 10 - - - - - - - 17.0 1024.0 0.0
04/01:00pm S 9 12 - - - - - - - 17.4 1024.1 0.0
04/12:30pm S 9 11 - - - - - - - 18.3 1024.3 0.0
04/12:00pm S 9 11 - - - - - - - 17.4 1024.5 0.0
04/11:30am S 9 13 - - - - - - - 17.9 1024.6 0.0
04/11:00am SSE 9 12 - - - - - - - 16.6 1024.4 0.0
04/10:30am S 11 13 - - - - - - - 16.2 1024.3 0.0
04/10:00am S 11 15 - - - - - - - 16.4 1023.9 0.0
04/09:30am S 13 17 - - - - - - - 16.2 1023.6 0.0
04/09:00am S 13 16 - - - - - - - 16.3 1023.7 -
04/08:30am S 14 17 - - - - - - - 15.2 1023.7 -
04/08:00am S 13 16 - - - - - - - 15.0 1023.6 -
04/07:30am SSE 9 12 - - - - - - - 15.1 1023.1 -
04/07:00am S 12 15 - - - - - - - 14.9 1022.8 -
04/06:30am S 13 17 - - - - - - - 14.8 1022.6 -
04/06:00am S 16 20 - - - - - - - 14.6 1022.2 -
04/05:30am SSW 12 15 - - - - - - - 14.6 1022.2 -
04/05:00am S 14 18 - - - - - - - 14.4 1022.2 -
04/04:30am S 13 16 - - - - - - - 14.3 1021.8 -
04/04:00am S 14 19 - - - - - - - 14.3 1021.9 -
04/03:30am SSE 14 16 - - - - - - - 14.4 1021.9 -
04/03:00am S 14 19 - - - - - - - 14.3 1021.8 0.0
04/02:30am SSE 14 17 - - - - - - - 14.1 1021.9 -
04/02:00am S 15 19 - - - - - - - 14.3 1021.8 -
04/01:30am S 14 17 - - - - - - - 14.1 1022.1 -
04/01:00am S 13 15 - - - - - - - 14.1 1022.2 -
04/12:30am S 12 16 - - - - - - - 14.3 1022.6 -
04/12:00am S 15 19 - - - - - - - 14.3 1022.8 -
 
Date/Time
CDT
Wind Sea
Height
m
Swell Vis
km
Cloud Weather Temp
°C
Press
MSL
hPa
Rain since
9am
mm
Dir  Spd
kts
Gust
kts
Height
m
Period
s
Dir
03/11:30pm SSE 13 17 - - - - - - - 14.4 1022.4 -
03/11:00pm S 17 20 - - - - - - - 14.3 1022.5 -
03/10:30pm S 16 20 - - - - - - - 14.5 1022.4 -
03/10:00pm SSE 16 21 - - - - - - - 14.5 1022.5 -
03/09:30pm SSE 14 18 - - - - - - - 14.3 1022.2 -
03/09:00pm S 16 19 - - - - - - - 14.5 1022.0 -
03/08:30pm S 15 20 - - - - - - - 14.6 1021.8 -
03/08:00pm S 16 20 - - - - - - - 15.0 1021.6 -
03/07:30pm S 16 18 - - - - - - - 15.4 1021.6 -
03/07:00pm S 13 18 - - - - - - - 15.5 1021.6 -
03/06:30pm S 14 18 - - - - - - - 15.6 1021.7 -
03/06:00pm S 15 18 - - - - - - - 15.9 1021.6 -
03/05:30pm S 14 16 - - - - - - - 16.7 1021.6 -
03/05:00pm S 12 16 - - - - - - - 16.7 1021.4 -

Other formats

Comma delimited format used in spreadsheet applications
http://www.bom.gov.au/fwo/IDS60701/IDS60701.94804.axf

JavaScript Object Notation format (JSON) in row-major order
http://www.bom.gov.au/fwo/IDS60701/IDS60701.94804.json

Data quality

Most of these data are generated automatically and are frequently updated. Quality checks on data are not normally performed. It is possible for incorrect values to appear. Refer to information at About Latest Weather Observations and please check the disclaimer before using these data.